KBHB 220356Z AUTO 30008G18KT 270V330 9SM -SN FEW037 OVC095 M16/M19 A2984 RMK AO2 SLP110 P0000 T11561189 FZRANO $